Startpagina
METAR-TAF:

METAR-TAF

Vliegvelden :

Cazaux, Frankrijk

breedte: 44-32N, lengte: 001-08W, hoogte: 25 m

Actueel weer

Dit bericht is 39 minuten geleden gemaakt, om 07:00 UTC
Wind 4 kt uit het zuiden, variërend tussen het zuidzuidoosten en het zuidzuidwesten
Temperatuur 20°C
Vochtigheid 83%
Druk 1023 hPa
Zicht 10 km of meer
geen wolken onder 1500 m en geen cumulonimbus

METAR: LFBC 050700Z AUTO 17004KT 150V210 CAVOK 20/17 Q1023

Tijdstip: 09:39 (07:39 UTC)

Verwachting

Dit bericht is 23 uur en het 39 minuten geleden gemaakt, om 08:00 UTC
Verwachting geldig van 03 om 09 UTC tot 04 om 09 UTC
Wind 3 kt uit variabele richting
Zicht 10 km of meer
Verspreide wolken op 3500 ft
Gebroken wolken op 4500 ft
Tijdelijke
van 03 om 12 UTC tot 03 om 18 UTC
Wind 10 kt uit het westnoordwesten met uitschieters tot 20 kt
Kans 30% :
Tijdelijke
van 04 om 02 UTC tot 04 om 06 UTC
Zicht: 3000 m
Ondiepe mist

TAF: LFBC 030800Z 0309/0409 VRB03KT 9999 SCT035 BKN045 TEMPO 0312/0318 30010G20KT PROB30 TEMPO 0402/0406 3000 MIFG

Waarnemingen en weersverwachtingen van meer dan 4000 vliegvelden (METAR en TAF).

De beschikbare stations zijn de gele en rode punten op de kaart.

Ga met uw muis naar het station om de naam te zien.

Klik dan om waarnemingen en weersverwachtingen te zien.

kaart wijzigen: klik op de groene knoppen met een zwart kruis om in te zoomen, op de groene knop met een streepje om uit te zoomen of op de groene pijlen voor aangrenzende kaarten.


METAR-TAF: